createdAt,value
2022-08-12T00:00:30.256Z,1.20
2022-08-12T00:02:02.589Z,1.40
2022-08-12T00:02:31.248Z,1.20
2022-08-12T00:03:30.266Z,1.50
2022-08-12T00:04:30.198Z,1.40
2022-08-12T00:05:30.185Z,1.30
2022-08-12T00:06:30.195Z,1.00
2022-08-12T00:07:30.195Z,1.40
2022-08-12T00:08:36.968Z,1.50
2022-08-12T00:09:31.133Z,1.30
2022-08-12T00:10:30.123Z,1.40
2022-08-12T00:11:30.145Z,1.30
2022-08-12T00:12:30.169Z,1.30
2022-08-12T00:13:30.135Z,1.30
2022-08-12T00:14:30.096Z,1.30
2022-08-12T00:15:30.130Z,1.20
2022-08-12T00:16:30.064Z,1.20
2022-08-12T00:17:30.057Z,1.40
2022-08-12T00:18:30.086Z,1.40
2022-08-12T00:19:30.066Z,1.00
2022-08-12T00:20:30.043Z,1.20
2022-08-12T00:21:30.014Z,1.40
2022-08-12T00:22:30.087Z,1.10
2022-08-12T00:23:30.003Z,1.30
2022-08-12T00:24:30.005Z,1.20
2022-08-12T00:26:05.564Z,1.30
2022-08-12T00:26:30.977Z,1.30
2022-08-12T00:27:44.002Z,1.10
2022-08-12T00:28:30.985Z,1.10
2022-08-12T00:29:29.957Z,1.50
2022-08-12T00:30:29.938Z,1.40
2022-08-12T00:31:29.948Z,1.50
2022-08-12T00:32:36.187Z,1.30
2022-08-12T00:33:38.557Z,1.20
2022-08-12T00:34:30.886Z,1.00
2022-08-12T00:35:36.831Z,1.40
2022-08-12T00:36:34.793Z,1.40
2022-08-12T00:37:29.858Z,1.10
2022-08-12T00:38:29.870Z,1.20
2022-08-12T00:39:29.937Z,1.30
2022-08-12T00:40:29.828Z,1.10
2022-08-12T00:41:29.829Z,1.30
2022-08-12T00:42:29.819Z,1.30
2022-08-12T00:43:29.799Z,1.20
2022-08-12T00:44:29.797Z,1.20
2022-08-12T00:45:29.788Z,1.10
2022-08-12T00:46:29.778Z,1.20
2022-08-12T00:47:29.769Z,1.20
2022-08-12T00:48:29.745Z,1.50
2022-08-12T00:49:29.737Z,1.20
2022-08-12T00:50:29.728Z,1.10
2022-08-12T00:51:29.738Z,1.10
2022-08-12T00:52:29.718Z,1.40
2022-08-12T00:53:29.702Z,1.10
2022-08-12T00:54:29.700Z,1.40
2022-08-12T00:55:29.678Z,1.20
2022-08-12T00:56:29.700Z,1.30
2022-08-12T00:57:29.681Z,1.00
2022-08-12T00:58:29.640Z,1.30
2022-08-12T00:59:29.660Z,1.10
2022-08-12T01:00:29.623Z,1.50
2022-08-12T01:01:29.661Z,1.00
2022-08-12T01:02:30.708Z,1.20
2022-08-12T01:03:29.661Z,1.20
2022-08-12T01:04:29.579Z,1.40
2022-08-12T01:05:29.558Z,1.10
2022-08-12T01:06:29.549Z,1.00
2022-08-12T01:07:29.549Z,1.20
2022-08-12T01:08:29.589Z,1.10
2022-08-12T01:09:29.530Z,1.20
2022-08-12T01:10:32.948Z,1.30
2022-08-12T01:11:29.510Z,1.40
2022-08-12T01:12:29.509Z,1.40
2022-08-12T01:13:29.491Z,1.30
2022-08-12T01:14:29.501Z,1.20
2022-08-12T01:15:29.473Z,1.10
2022-08-12T01:16:29.473Z,1.30
2022-08-12T01:17:29.442Z,1.30
2022-08-12T01:18:29.432Z,1.40
2022-08-12T01:19:29.453Z,1.30
2022-08-12T01:20:29.461Z,1.00
2022-08-12T01:21:29.411Z,1.20
2022-08-12T01:22:29.411Z,1.20
2022-08-12T01:23:29.380Z,1.40
2022-08-12T01:24:31.287Z,1.50
2022-08-12T01:25:29.401Z,1.10
2022-08-12T01:26:29.392Z,1.30
2022-08-12T01:27:29.341Z,1.30
2022-08-12T01:28:29.344Z,1.20
2022-08-12T01:29:33.311Z,1.30
2022-08-12T01:30:29.313Z,1.30
2022-08-12T01:31:29.428Z,1.40
2022-08-12T01:32:29.306Z,0.90
2022-08-12T01:33:29.284Z,1.20
2022-08-12T01:34:36.382Z,1.30
2022-08-12T01:35:30.284Z,1.50
2022-08-12T01:36:29.274Z,1.10
2022-08-12T01:37:29.232Z,1.20
2022-08-12T01:38:30.048Z,1.50
2022-08-12T01:39:29.261Z,1.40
2022-08-12T01:40:36.830Z,1.10
2022-08-12T01:41:30.201Z,1.40
2022-08-12T01:42:29.192Z,1.30
2022-08-12T01:43:29.173Z,1.20
2022-08-12T01:44:29.183Z,1.60
2022-08-12T01:45:29.171Z,1.30
2022-08-12T01:46:30.175Z,1.40
2022-08-12T01:47:29.165Z,1.50
2022-08-12T01:48:29.136Z,1.40
2022-08-12T01:49:29.124Z,1.00
2022-08-12T01:50:29.116Z,1.30
2022-08-12T01:52:15.462Z,1.00
2022-08-12T01:52:30.103Z,1.30
2022-08-12T01:53:29.073Z,1.30
2022-08-12T01:54:30.065Z,1.30
2022-08-12T01:55:29.093Z,1.20
2022-08-12T01:56:29.044Z,1.60
2022-08-12T01:57:57.822Z,1.50
2022-08-12T01:58:30.094Z,1.40
2022-08-12T01:59:29.006Z,1.10
2022-08-12T02:00:35.736Z,1.50
2022-08-12T02:01:30.067Z,1.30
2022-08-12T02:02:28.987Z,1.40
2022-08-12T02:03:29.017Z,1.20
2022-08-12T02:04:28.996Z,1.40
2022-08-12T02:05:28.956Z,1.40
2022-08-12T02:06:28.947Z,1.50
2022-08-12T02:07:28.946Z,1.60
2022-08-12T02:08:28.947Z,1.20
2022-08-12T02:09:28.916Z,1.20
2022-08-12T02:10:49.377Z,1.40
2022-08-12T02:11:29.885Z,1.40
2022-08-12T02:12:31.398Z,1.70
2022-08-12T02:13:42.076Z,1.40
2022-08-12T02:14:29.895Z,1.40
2022-08-12T02:15:28.856Z,1.30
2022-08-12T02:16:28.878Z,1.50
2022-08-12T02:17:56.562Z,1.50
2022-08-12T02:18:29.829Z,1.50
2022-08-12T02:19:28.820Z,1.40
2022-08-12T02:20:35.497Z,1.60
2022-08-12T02:21:29.848Z,1.20
2022-08-12T02:22:28.786Z,1.20
2022-08-12T02:23:28.768Z,1.40
2022-08-12T02:24:28.829Z,1.50
2022-08-12T02:25:28.759Z,1.20
2022-08-12T02:26:28.791Z,1.50
2022-08-12T02:27:28.765Z,1.40
2022-08-12T02:28:28.779Z,1.30
2022-08-12T02:29:28.738Z,1.30
2022-08-12T02:30:41.206Z,1.30
2022-08-12T02:31:29.689Z,1.40
2022-08-12T02:32:28.698Z,1.40
2022-08-12T02:33:28.677Z,1.40
2022-08-12T02:34:28.671Z,1.30
2022-08-12T02:35:28.649Z,1.10
2022-08-12T02:36:28.638Z,1.30
2022-08-12T02:37:28.659Z,1.30
2022-08-12T02:38:28.618Z,1.30
2022-08-12T02:39:28.635Z,1.10
2022-08-12T02:40:28.651Z,1.50
2022-08-12T02:41:28.591Z,1.50
2022-08-12T02:42:28.621Z,1.40
2022-08-12T02:43:28.600Z,1.20
2022-08-12T02:44:28.561Z,1.30
2022-08-12T02:45:28.550Z,1.30
2022-08-12T02:46:28.562Z,1.30
2022-08-12T02:47:58.137Z,1.60
2022-08-12T02:48:29.528Z,1.40
2022-08-12T02:49:28.508Z,1.40
2022-08-12T02:50:28.501Z,1.30
2022-08-12T02:51:28.480Z,1.30
2022-08-12T02:52:28.470Z,1.40
2022-08-12T02:53:28.480Z,1.20
2022-08-12T02:54:28.460Z,1.50
2022-08-12T02:55:34.656Z,1.50
2022-08-12T02:56:29.456Z,1.40
2022-08-12T02:57:28.422Z,1.50
2022-08-12T02:58:33.316Z,1.40
2022-08-12T02:59:29.412Z,1.20
2022-08-12T03:00:28.403Z,1.50
2022-08-12T03:01:28.422Z,1.40
2022-08-12T03:02:28.374Z,1.30
2022-08-12T03:03:28.384Z,1.60
2022-08-12T03:04:28.370Z,1.40
2022-08-12T03:05:28.352Z,1.70
2022-08-12T03:07:27.797Z,1.40
2022-08-12T03:08:32.483Z,1.40
2022-08-12T03:09:26.692Z,1.20
2022-08-12T03:10:36.919Z,1.40
2022-08-12T03:11:25.345Z,1.00
2022-08-12T03:12:24.365Z,1.30
2022-08-12T03:13:24.323Z,1.10
2022-08-12T03:14:24.314Z,1.40
2022-08-12T03:15:24.335Z,1.30
2022-08-12T03:16:24.298Z,1.50
2022-08-12T03:17:24.280Z,1.30
2022-08-12T03:18:27.125Z,1.70
2022-08-12T03:19:24.268Z,1.40
2022-08-12T03:20:28.349Z,1.50
2022-08-12T03:21:53.103Z,1.50
2022-08-12T03:22:25.238Z,1.50
2022-08-12T03:23:29.843Z,1.40
2022-08-12T03:24:25.266Z,1.30
2022-08-12T03:25:24.227Z,1.50
2022-08-12T03:26:24.186Z,1.40
2022-08-12T03:27:24.178Z,1.40
2022-08-12T03:28:24.284Z,1.30
2022-08-12T03:29:24.178Z,1.40
2022-08-12T03:30:24.147Z,1.20
2022-08-12T03:31:24.148Z,1.40
2022-08-12T03:32:35.880Z,1.30
2022-08-12T03:33:25.150Z,1.50
2022-08-12T03:34:24.813Z,1.40
2022-08-12T03:35:40.133Z,1.50
2022-08-12T03:36:25.101Z,1.80
2022-08-12T03:37:24.119Z,2.50
2022-08-12T03:38:24.101Z,1.40
2022-08-12T03:39:35.937Z,1.50
2022-08-12T03:40:25.099Z,1.50
2022-08-12T03:41:24.060Z,1.30
2022-08-12T03:42:24.029Z,1.40
2022-08-12T03:43:24.008Z,1.40
2022-08-12T03:44:25.784Z,1.40
2022-08-12T03:45:24.029Z,1.10
2022-08-12T03:46:23.998Z,1.50
2022-08-12T03:47:23.980Z,1.50
2022-08-12T03:48:24.008Z,1.20
2022-08-12T03:49:23.967Z,1.40
2022-08-12T03:50:23.971Z,1.10
2022-08-12T03:51:23.978Z,1.10
2022-08-12T03:52:23.951Z,1.40
2022-08-12T03:53:23.950Z,1.50
2022-08-12T03:54:23.869Z,1.30
2022-08-12T03:55:23.910Z,1.20
2022-08-12T03:56:23.910Z,1.80
2022-08-12T03:57:23.911Z,1.40
2022-08-12T03:58:23.852Z,1.20
2022-08-12T03:59:24.220Z,1.60
2022-08-12T04:00:24.564Z,1.40
2022-08-12T04:01:23.849Z,1.30
2022-08-12T04:02:23.829Z,1.40
2022-08-12T04:03:23.784Z,1.60
2022-08-12T04:04:23.797Z,1.50
2022-08-12T04:05:23.753Z,1.40
2022-08-12T04:06:34.271Z,1.60
2022-08-12T04:07:24.739Z,1.40
2022-08-12T04:08:23.754Z,1.40
2022-08-12T04:09:23.702Z,1.50
2022-08-12T04:10:23.732Z,1.60
2022-08-12T04:11:23.704Z,1.00
2022-08-12T04:12:23.690Z,1.40
2022-08-12T04:13:23.671Z,1.20
2022-08-12T04:14:23.664Z,1.40
2022-08-12T04:15:23.664Z,1.60
2022-08-12T04:16:23.672Z,1.60
2022-08-12T04:17:23.654Z,1.40
2022-08-12T04:18:23.632Z,1.20
2022-08-12T04:19:23.615Z,1.00
2022-08-12T04:20:23.625Z,1.00
2022-08-12T04:21:24.623Z,1.30
2022-08-12T04:22:23.591Z,1.40
2022-08-12T04:23:23.583Z,1.40
2022-08-12T04:24:23.600Z,1.30
2022-08-12T04:25:23.554Z,1.60
2022-08-12T04:26:23.574Z,1.50
2022-08-12T04:27:23.523Z,1.60
2022-08-12T04:28:23.563Z,1.70
2022-08-12T04:30:31.896Z,1.10
2022-08-12T04:30:32.743Z,1.40
2022-08-12T04:31:24.536Z,1.20
2022-08-12T04:32:23.515Z,1.20
2022-08-12T04:33:23.483Z,1.50
2022-08-12T04:34:23.475Z,1.50
2022-08-12T04:35:23.456Z,1.20
2022-08-12T04:36:23.454Z,1.30
2022-08-12T04:37:23.479Z,1.90
2022-08-12T04:38:23.445Z,1.60
2022-08-12T04:39:23.745Z,1.20
2022-08-12T04:40:28.453Z,1.30
2022-08-12T04:41:24.384Z,1.30
2022-08-12T04:42:23.406Z,1.70
2022-08-12T04:44:00.660Z,1.30
2022-08-12T04:44:24.366Z,1.40
2022-08-12T04:45:23.357Z,1.40
2022-08-12T04:46:26.406Z,1.30
2022-08-12T04:47:24.336Z,1.30
2022-08-12T04:48:23.346Z,1.70
2022-08-12T04:49:23.346Z,1.20
2022-08-12T04:50:33.930Z,1.20
2022-08-12T04:51:24.308Z,1.50
2022-08-12T04:52:23.288Z,1.30
2022-08-12T04:53:23.275Z,1.30
2022-08-12T04:54:23.349Z,1.20
2022-08-12T04:55:23.267Z,1.40
2022-08-12T04:56:23.289Z,1.60
2022-08-12T04:57:23.268Z,1.40
2022-08-12T04:58:29.155Z,1.40
2022-08-12T04:59:24.237Z,1.50
2022-08-12T05:00:23.878Z,1.40
2022-08-12T05:01:23.198Z,1.60
2022-08-12T05:02:23.279Z,1.60
2022-08-12T05:03:23.187Z,1.00
2022-08-12T05:04:23.187Z,1.40
2022-08-12T05:05:23.179Z,1.30
2022-08-12T05:06:26.811Z,1.80
2022-08-12T05:07:23.127Z,1.70
2022-08-12T05:08:23.148Z,1.40
2022-08-12T05:09:23.125Z,1.60
2022-08-12T05:10:33.612Z,1.40
2022-08-12T05:11:24.109Z,1.60
2022-08-12T05:12:23.089Z,1.30
2022-08-12T05:13:23.082Z,1.70
2022-08-12T05:14:23.079Z,1.40
2022-08-12T05:15:29.246Z,1.50
2022-08-12T05:16:30.994Z,1.40
2022-08-12T05:17:24.082Z,1.50
2022-08-12T05:18:23.050Z,1.10
2022-08-12T05:19:23.008Z,1.40
2022-08-12T05:20:23.035Z,1.50
2022-08-12T05:21:22.998Z,1.40
2022-08-12T05:22:23.008Z,1.70
2022-08-12T05:23:22.968Z,1.50
2022-08-12T05:24:22.970Z,1.40
2022-08-12T05:25:22.948Z,1.40
2022-08-12T05:26:23.002Z,1.10
2022-08-12T05:27:23.033Z,1.40
2022-08-12T05:28:22.952Z,1.20
2022-08-12T05:30:07.745Z,1.40
2022-08-12T05:30:23.941Z,1.40
2022-08-12T05:31:40.581Z,1.50
2022-08-12T05:32:23.892Z,1.20
2022-08-12T05:33:22.902Z,1.30
2022-08-12T05:34:26.650Z,1.50
2022-08-12T05:35:22.851Z,1.50
2022-08-12T05:36:22.850Z,1.80
2022-08-12T05:37:22.830Z,1.30
2022-08-12T05:38:22.824Z,1.40
2022-08-12T05:39:22.880Z,1.40
2022-08-12T05:40:22.821Z,1.30
2022-08-12T05:41:22.792Z,1.50
2022-08-12T05:42:22.783Z,1.30
2022-08-12T05:43:23.801Z,1.40
2022-08-12T05:44:22.784Z,1.50
2022-08-12T05:45:22.784Z,1.40
2022-08-12T05:46:22.752Z,1.50
2022-08-12T05:47:22.733Z,1.40
2022-08-12T05:48:23.732Z,1.50
2022-08-12T05:49:22.727Z,2.10
2022-08-12T05:50:22.756Z,1.90
2022-08-12T05:51:22.733Z,2.50
2022-08-12T05:52:22.683Z,2.30
2022-08-12T05:53:22.673Z,2.60
2022-08-12T05:54:47.363Z,2.30
2022-08-12T05:55:26.988Z,2.50
2022-08-12T05:56:23.729Z,2.40
2022-08-12T05:57:22.635Z,2.60
2022-08-12T05:58:22.635Z,2.40
2022-08-12T05:59:22.674Z,2.40
2022-08-12T06:00:22.693Z,2.10
2022-08-12T06:02:09.752Z,1.90
2022-08-12T06:02:23.625Z,2.30
2022-08-12T06:03:22.629Z,2.30
2022-08-12T06:04:22.571Z,2.20
2022-08-12T06:05:22.584Z,2.30
2022-08-12T06:06:23.297Z,2.50
2022-08-12T06:07:59.228Z,2.10
2022-08-12T06:08:23.536Z,2.10
2022-08-12T06:09:22.816Z,2.00
2022-08-12T06:10:31.686Z,2.40
2022-08-12T06:11:23.497Z,2.40
2022-08-12T06:12:22.498Z,2.10
2022-08-12T06:13:27.965Z,2.30
2022-08-12T06:14:23.550Z,2.70
2022-08-12T06:15:22.455Z,2.40
2022-08-12T06:16:22.464Z,2.10
2022-08-12T06:17:22.524Z,1.90
2022-08-12T06:18:26.526Z,2.30
2022-08-12T06:19:23.415Z,2.40
2022-08-12T06:20:29.814Z,2.10
2022-08-12T06:21:23.422Z,2.10
2022-08-12T06:22:22.519Z,2.50
2022-08-12T06:23:22.376Z,2.20
2022-08-12T06:24:22.399Z,2.00
2022-08-12T06:25:22.407Z,2.30
2022-08-12T06:26:22.360Z,2.20
2022-08-12T06:27:22.433Z,2.00
2022-08-12T06:28:22.327Z,1.80
2022-08-12T06:30:06.553Z,2.00
2022-08-12T06:30:33.554Z,2.20
2022-08-12T06:31:26.214Z,2.10
2022-08-12T06:32:27.475Z,1.90
2022-08-12T06:33:24.621Z,1.80
2022-08-12T06:35:27.287Z,1.80
2022-08-12T06:35:48.819Z,1.90
2022-08-12T06:36:23.266Z,2.00
2022-08-12T06:37:22.239Z,1.80
2022-08-12T06:38:22.247Z,1.80
2022-08-12T06:39:22.251Z,1.70
2022-08-12T06:40:22.237Z,1.90
2022-08-12T06:41:22.240Z,1.80
2022-08-12T06:42:32.819Z,1.80
2022-08-12T06:43:23.197Z,1.80
2022-08-12T06:44:22.202Z,1.60
2022-08-12T06:45:22.190Z,1.90
2022-08-12T06:46:22.169Z,2.20
2022-08-12T06:47:22.163Z,1.70
2022-08-12T06:48:22.127Z,1.90
2022-08-12T06:49:22.119Z,1.70
2022-08-12T06:50:22.120Z,1.60
2022-08-12T06:51:22.089Z,2.20
2022-08-12T06:52:22.100Z,1.70
2022-08-12T06:53:22.068Z,1.60
2022-08-12T06:54:30.821Z,1.60
2022-08-12T06:55:23.104Z,1.70
2022-08-12T06:56:34.700Z,1.60
2022-08-12T06:58:06.179Z,1.60
2022-08-12T06:58:23.052Z,2.00
2022-08-12T06:59:22.014Z,2.00
2022-08-12T07:00:22.011Z,1.70
2022-08-12T07:01:23.068Z,1.80
2022-08-12T07:02:21.993Z,2.00
2022-08-12T07:03:23.280Z,1.70
2022-08-12T07:04:38.767Z,2.00
2022-08-12T07:05:22.962Z,1.80
2022-08-12T07:06:21.951Z,1.80
2022-08-12T07:07:21.948Z,1.60
2022-08-12T07:08:21.934Z,1.80
2022-08-12T07:10:06.560Z,1.70
2022-08-12T07:10:22.923Z,1.80
2022-08-12T07:11:21.909Z,1.50
2022-08-12T07:12:21.894Z,1.80
2022-08-12T07:13:21.871Z,1.80
2022-08-12T07:14:21.871Z,1.60
2022-08-12T07:15:22.523Z,1.40
2022-08-12T07:16:21.863Z,2.00
2022-08-12T07:17:21.821Z,1.80
2022-08-12T07:18:21.848Z,1.70
2022-08-12T07:19:21.845Z,1.50
2022-08-12T07:20:50.778Z,1.80
2022-08-12T07:21:23.473Z,2.10
2022-08-12T07:22:22.814Z,1.20
2022-08-12T07:23:21.796Z,1.40
2022-08-12T07:24:21.774Z,1.80
2022-08-12T07:25:21.754Z,1.70
2022-08-12T07:26:21.776Z,1.50
2022-08-12T07:27:21.752Z,1.20
2022-08-12T07:28:21.785Z,1.90
2022-08-12T07:29:21.713Z,1.50
2022-08-12T07:30:21.714Z,1.80
2022-08-12T07:31:21.690Z,1.80
2022-08-12T07:32:21.693Z,1.70
2022-08-12T07:33:21.674Z,1.60
2022-08-12T07:34:21.691Z,1.60
2022-08-12T07:35:21.711Z,1.60
2022-08-12T07:36:21.646Z,1.40
2022-08-12T07:37:21.695Z,1.50
2022-08-12T07:38:29.162Z,1.70
2022-08-12T07:39:23.628Z,1.60
2022-08-12T07:40:21.615Z,1.60
2022-08-12T07:41:21.637Z,1.40
2022-08-12T07:42:21.646Z,1.40
2022-08-12T07:43:21.582Z,1.40
2022-08-12T07:44:21.575Z,1.50
2022-08-12T07:45:21.554Z,1.40
2022-08-12T07:46:21.564Z,1.50
2022-08-12T07:47:21.545Z,1.30
2022-08-12T07:48:21.515Z,1.20
2022-08-12T07:49:21.544Z,1.50
2022-08-12T07:50:23.810Z,1.40
2022-08-12T07:51:24.742Z,1.20
2022-08-12T07:52:21.517Z,1.40
2022-08-12T07:53:21.490Z,1.30
2022-08-12T07:54:21.466Z,1.30
2022-08-12T07:55:21.488Z,1.30
2022-08-12T07:56:21.540Z,1.60
2022-08-12T07:57:21.439Z,1.50
2022-08-12T07:58:21.455Z,1.50
2022-08-12T07:59:21.416Z,1.50
2022-08-12T08:00:21.845Z,1.30
2022-08-12T08:01:21.935Z,1.90
2022-08-12T08:02:26.398Z,1.40
2022-08-12T08:03:22.435Z,1.20
2022-08-12T08:04:21.403Z,1.20
2022-08-12T08:05:21.447Z,1.50
2022-08-12T08:06:21.350Z,1.10
2022-08-12T08:08:18.165Z,0.90
2022-08-12T08:09:18.151Z,1.10
2022-08-12T08:10:18.110Z,1.30
2022-08-12T08:11:18.114Z,1.60
2022-08-12T08:12:18.888Z,1.60
2022-08-12T08:13:18.074Z,1.50
2022-08-12T08:14:18.381Z,1.50
2022-08-12T08:15:18.062Z,1.40
2022-08-12T08:16:18.050Z,1.70
2022-08-12T08:17:18.023Z,1.50
2022-08-12T08:18:26.470Z,1.40
2022-08-12T08:19:19.005Z,1.50
2022-08-12T08:20:17.990Z,1.50
2022-08-12T08:21:18.033Z,1.10
2022-08-12T08:22:18.005Z,1.10
2022-08-12T08:23:18.971Z,1.10
2022-08-12T08:24:18.033Z,1.30
2022-08-12T08:25:34.568Z,1.30
2022-08-12T08:26:19.075Z,1.30
2022-08-12T08:27:17.944Z,1.30
2022-08-12T08:28:17.916Z,1.40
2022-08-12T08:29:17.913Z,1.20
2022-08-12T08:30:17.890Z,1.40
2022-08-12T08:31:17.879Z,1.20
2022-08-12T08:32:17.910Z,1.40
2022-08-12T08:33:24.395Z,1.50
2022-08-12T08:34:47.133Z,1.60
2022-08-12T08:35:18.843Z,1.30
2022-08-12T08:36:23.577Z,1.20
2022-08-12T08:37:19.403Z,1.20
2022-08-12T08:38:30.072Z,1.40
2022-08-12T08:39:18.854Z,1.20
2022-08-12T08:40:17.814Z,1.60
2022-08-12T08:42:17.086Z,1.40
2022-08-12T08:42:20.517Z,1.30
2022-08-12T08:43:17.756Z,1.40
2022-08-12T08:44:17.771Z,1.50
2022-08-12T08:45:17.742Z,1.30
2022-08-12T08:46:17.733Z,1.30
2022-08-12T08:47:18.146Z,1.10
2022-08-12T08:48:17.731Z,1.30
2022-08-12T08:49:17.731Z,1.20
2022-08-12T08:50:17.723Z,1.40
2022-08-12T08:51:17.695Z,1.20
2022-08-12T08:52:40.267Z,1.20
2022-08-12T08:53:18.797Z,1.30
2022-08-12T08:54:17.645Z,1.00
2022-08-12T08:55:22.172Z,1.20
2022-08-12T08:56:18.696Z,1.30
2022-08-12T08:57:17.603Z,1.40
2022-08-12T08:58:17.624Z,1.20
2022-08-12T08:59:17.626Z,1.00
2022-08-12T09:00:17.583Z,1.20
2022-08-12T09:01:18.453Z,1.40
2022-08-12T09:02:17.662Z,1.10
2022-08-12T09:05:08.475Z,1.20
2022-08-12T09:05:09.417Z,1.20
2022-08-12T09:05:25.345Z,1.20
2022-08-12T09:06:18.526Z,1.30
2022-08-12T09:07:43.950Z,1.30
2022-08-12T09:08:26.650Z,1.20
2022-08-12T09:09:18.496Z,1.00
2022-08-12T09:10:30.570Z,1.60
2022-08-12T09:12:06.542Z,1.30
2022-08-12T09:12:27.389Z,1.00
2022-08-12T09:13:23.208Z,1.10
2022-08-12T09:14:19.319Z,1.50
2022-08-12T09:15:19.284Z,1.30
2022-08-12T09:17:21.401Z,1.40
2022-08-12T09:18:17.394Z,1.40
2022-08-12T09:19:27.179Z,1.20
2022-08-12T09:20:18.386Z,1.20
2022-08-12T09:21:17.369Z,1.40
2022-08-12T09:24:01.179Z,1.40
2022-08-12T09:24:18.361Z,1.10
2022-08-12T09:25:25.848Z,1.10
2022-08-12T09:26:18.370Z,1.10
2022-08-12T09:27:17.338Z,1.00
2022-08-12T09:28:18.428Z,1.30
2022-08-12T09:29:17.327Z,1.20
2022-08-12T09:30:17.326Z,1.10
2022-08-12T09:32:06.831Z,1.10
2022-08-12T09:32:29.509Z,0.90
2022-08-12T09:34:24.606Z,1.40
2022-08-12T09:34:28.033Z,1.10
2022-08-12T09:35:18.415Z,1.20
2022-08-12T09:36:31.225Z,1.20
2022-08-12T09:37:20.185Z,1.30
2022-08-12T09:38:29.187Z,0.90
2022-08-12T09:40:05.720Z,1.00
2022-08-12T09:41:01.296Z,0.90
2022-08-12T09:42:09.806Z,1.10
2022-08-12T09:42:40.433Z,1.00
2022-08-12T09:43:18.884Z,1.20
2022-08-12T09:44:38.121Z,1.10
2022-08-12T09:45:23.291Z,1.20
2022-08-12T09:46:21.686Z,1.00
2022-08-12T09:47:18.122Z,0.90
2022-08-12T09:48:20.062Z,1.00
2022-08-12T09:49:17.224Z,1.40
2022-08-12T09:50:20.099Z,1.40
2022-08-12T09:51:21.957Z,1.20
2022-08-12T09:52:18.072Z,1.20
2022-08-12T09:53:17.020Z,1.10
2022-08-12T09:54:33.424Z,1.20
2022-08-12T09:55:59.603Z,1.40
2022-08-12T09:57:02.238Z,1.00
2022-08-12T09:58:44.870Z,0.90
2022-08-12T09:58:57.376Z,1.00
2022-08-12T10:00:16.041Z,1.20
2022-08-12T10:00:28.257Z,1.20
2022-08-12T10:01:23.266Z,1.10
2022-08-12T10:02:45.163Z,1.30
2022-08-12T10:03:31.955Z,1.30
2022-08-12T10:04:19.910Z,1.20
2022-08-12T10:05:17.821Z,1.10
2022-08-12T10:06:27.064Z,1.10
2022-08-12T10:07:25.186Z,1.00
2022-08-12T10:08:17.878Z,1.00
2022-08-12T10:09:16.876Z,1.20
2022-08-12T10:10:24.762Z,1.20
2022-08-12T10:11:18.422Z,1.20
2022-08-12T10:12:16.829Z,1.30
2022-08-12T10:13:35.553Z,1.40
2022-08-12T10:14:17.839Z,1.30
2022-08-12T10:16:01.540Z,1.00
2022-08-12T10:16:21.710Z,1.00
2022-08-12T10:17:16.813Z,1.20
2022-08-12T10:18:16.842Z,1.30
2022-08-12T10:19:17.670Z,1.00
2022-08-12T10:20:16.786Z,1.40
2022-08-12T10:21:16.766Z,1.10
2022-08-12T10:22:49.214Z,1.20
2022-08-12T10:23:17.859Z,1.30
2022-08-12T10:24:20.046Z,1.10
2022-08-12T10:25:17.721Z,1.30
2022-08-12T10:26:34.759Z,0.90
2022-08-12T10:27:17.671Z,1.00
2022-08-12T10:28:24.905Z,1.00
2022-08-12T10:30:01.683Z,1.20
2022-08-12T10:30:41.898Z,1.20
2022-08-12T10:31:17.658Z,1.10
2022-08-12T10:32:22.208Z,1.20
2022-08-12T10:33:19.124Z,1.40
2022-08-12T10:34:24.041Z,1.10
2022-08-12T10:35:17.653Z,1.00
2022-08-12T10:36:16.594Z,1.20
2022-08-12T10:38:05.033Z,1.00
2022-08-12T10:38:36.301Z,1.20
2022-08-12T10:40:07.035Z,1.00
2022-08-12T10:40:20.524Z,1.30
2022-08-12T10:41:19.170Z,0.80
2022-08-12T10:42:16.533Z,0.80
2022-08-12T10:43:17.556Z,1.20
2022-08-12T10:44:17.365Z,0.80
2022-08-12T10:45:18.027Z,1.10
2022-08-12T10:46:16.527Z,1.10
2022-08-12T10:47:25.924Z,1.30
2022-08-12T10:48:21.066Z,1.00
2022-08-12T10:50:05.367Z,0.80
2022-08-12T10:50:28.067Z,1.00
2022-08-12T10:52:02.763Z,1.30
2022-08-12T10:52:34.041Z,1.10
2022-08-12T10:53:19.777Z,1.00
2022-08-12T10:54:16.406Z,1.00
2022-08-12T10:55:16.426Z,1.20
2022-08-12T10:56:16.486Z,0.90
2022-08-12T10:57:18.481Z,1.30
2022-08-12T10:58:30.956Z,0.80
2022-08-12T10:59:17.376Z,1.10
2022-08-12T11:00:33.739Z,1.20
2022-08-12T11:01:26.014Z,0.90
2022-08-12T11:04:23.460Z,1.30
2022-08-12T11:04:25.902Z,0.80
2022-08-12T11:04:35.856Z,1.00
2022-08-12T11:07:05.911Z,0.90
2022-08-12T11:07:08.461Z,1.10
2022-08-12T11:08:34.447Z,1.00
2022-08-12T11:08:36.786Z,1.10
2022-08-12T11:09:17.350Z,1.10
2022-08-12T11:10:17.271Z,1.10
2022-08-12T11:11:16.852Z,0.90
2022-08-12T11:12:56.338Z,1.20
2022-08-12T11:13:17.221Z,0.80
2022-08-12T11:14:50.457Z,0.90
2022-08-12T11:15:21.344Z,1.00
2022-08-12T11:16:19.193Z,1.30
2022-08-12T11:17:34.202Z,0.90
2022-08-12T11:18:17.964Z,0.70
2022-08-12T11:19:16.135Z,0.80
2022-08-12T11:20:17.166Z,0.70
2022-08-12T11:21:16.202Z,0.90
2022-08-12T11:22:16.126Z,1.00
2022-08-12T11:23:25.571Z,1.20
2022-08-12T11:24:30.771Z,1.40
2022-08-12T11:25:17.119Z,1.10
2022-08-12T11:26:16.457Z,0.90
2022-08-12T11:27:17.090Z,1.00
2022-08-12T11:28:16.216Z,1.20
2022-08-12T11:29:22.691Z,0.80
2022-08-12T11:30:31.145Z,0.90
2022-08-12T11:31:17.030Z,1.10
2022-08-12T11:32:16.939Z,1.00
2022-08-12T11:33:24.124Z,1.10
2022-08-12T11:34:52.777Z,1.10
2022-08-12T11:35:17.347Z,0.90
2022-08-12T11:36:21.930Z,1.30
2022-08-12T11:37:25.512Z,0.80
2022-08-12T11:38:20.334Z,0.90
2022-08-12T11:39:15.932Z,1.10
2022-08-12T11:41:17.633Z,1.20
2022-08-12T11:42:16.881Z,1.20
2022-08-12T11:43:19.846Z,1.00
2022-08-12T11:44:36.938Z,0.70
2022-08-12T11:45:17.169Z,1.00
2022-08-12T11:46:18.445Z,0.90
2022-08-12T11:47:15.881Z,0.80
2022-08-12T11:48:15.868Z,1.00
2022-08-12T11:49:26.923Z,0.90
2022-08-12T11:50:19.275Z,1.00
2022-08-12T11:51:15.793Z,1.10
2022-08-12T11:52:27.279Z,0.90
2022-08-12T11:53:59.545Z,1.00
2022-08-12T11:54:16.776Z,0.90
2022-08-12T11:55:15.757Z,1.10
2022-08-12T11:56:17.037Z,1.10
2022-08-12T11:58:03.916Z,1.30
2022-08-12T11:59:28.601Z,1.20
2022-08-12T12:02:01.791Z,1.10
2022-08-12T12:02:20.684Z,0.90
2022-08-12T12:03:17.335Z,1.00
2022-08-12T12:04:29.056Z,1.10
2022-08-12T12:05:16.651Z,0.90
2022-08-12T12:06:16.976Z,1.00
2022-08-12T12:07:16.294Z,1.10
2022-08-12T12:08:40.672Z,0.90
2022-08-12T12:09:16.877Z,0.90
2022-08-12T12:10:15.614Z,1.00
2022-08-12T12:11:15.606Z,1.10
2022-08-12T12:12:15.595Z,0.90
2022-08-12T12:13:23.195Z,0.90
2022-08-12T12:14:17.790Z,1.00
2022-08-12T12:15:15.549Z,0.90
2022-08-12T12:16:16.537Z,1.00
2022-08-12T12:17:15.568Z,1.20
2022-08-12T12:18:15.560Z,1.10
2022-08-12T12:19:19.156Z,0.90
2022-08-12T12:20:15.579Z,0.90
2022-08-12T12:21:15.509Z,1.00
2022-08-12T12:22:15.606Z,0.80
2022-08-12T12:23:28.766Z,1.20
2022-08-12T12:24:20.931Z,1.10
2022-08-12T12:25:16.482Z,0.90
2022-08-12T12:26:35.017Z,0.90
2022-08-12T12:27:19.429Z,1.00
2022-08-12T12:28:36.931Z,0.90
2022-08-12T12:30:13.888Z,0.90
2022-08-12T12:30:29.470Z,1.30
2022-08-12T12:32:10.414Z,1.30
2022-08-12T12:32:16.444Z,1.00
2022-08-12T12:33:18.121Z,1.10
2022-08-12T12:34:30.356Z,0.80
2022-08-12T12:36:06.325Z,0.90
2022-08-12T12:36:20.767Z,0.70
2022-08-12T12:37:58.990Z,1.00
2022-08-12T12:38:17.523Z,0.70
2022-08-12T12:39:15.363Z,1.10
2022-08-12T12:40:15.346Z,1.00
2022-08-12T12:41:16.768Z,0.90
2022-08-12T12:42:43.251Z,1.00
2022-08-12T12:43:16.455Z,1.00
2022-08-12T12:44:25.448Z,1.00
2022-08-12T12:45:19.627Z,0.70
2022-08-12T12:46:15.251Z,1.00
2022-08-12T12:47:28.893Z,1.20
2022-08-12T12:48:16.242Z,0.90
2022-08-12T12:49:15.280Z,1.30
2022-08-12T12:50:35.469Z,0.80
2022-08-12T12:51:49.068Z,0.70
2022-08-12T12:52:19.850Z,0.90
2022-08-12T12:54:05.357Z,0.90
2022-08-12T12:54:16.831Z,1.00
2022-08-12T12:55:15.162Z,0.80
2022-08-12T12:56:15.242Z,1.10
2022-08-12T12:57:15.415Z,1.10
2022-08-12T12:58:15.125Z,0.80
2022-08-12T12:59:54.501Z,1.00
2022-08-12T13:00:16.146Z,1.20
2022-08-12T13:01:28.033Z,1.00
2022-08-12T13:02:16.128Z,1.20
2022-08-12T13:03:19.253Z,1.00
2022-08-12T13:04:15.065Z,1.10
2022-08-12T13:05:16.235Z,1.00
2022-08-12T13:06:15.055Z,1.00
2022-08-12T13:07:15.046Z,0.90
2022-08-12T13:09:13.163Z,0.70
2022-08-12T13:10:11.748Z,0.80
2022-08-12T13:11:11.737Z,0.80
2022-08-12T13:12:11.728Z,1.00
2022-08-12T13:14:07.500Z,0.90
2022-08-12T13:14:28.722Z,0.80
2022-08-12T13:15:12.687Z,0.90
2022-08-12T13:16:14.374Z,1.20
2022-08-12T13:17:14.785Z,0.90
2022-08-12T13:18:11.658Z,1.00
2022-08-12T13:19:11.663Z,0.90
2022-08-12T13:20:11.639Z,1.00
2022-08-12T13:21:15.819Z,0.80
2022-08-12T13:22:12.621Z,0.80
2022-08-12T13:23:36.249Z,0.80
2022-08-12T13:24:12.631Z,1.00
2022-08-12T13:25:11.622Z,1.00
2022-08-12T13:26:14.408Z,0.90